sensor_id;sensor_type;location;lat;lon;timestamp;temperature;humidity
18408;DHT22;9330;52.210;21.174;2022-07-21T00:01:27;17.60;99.90
18408;DHT22;9330;52.210;21.174;2022-07-21T00:03:54;17.50;99.90
18408;DHT22;9330;52.210;21.174;2022-07-21T00:06:21;17.30;99.90
18408;DHT22;9330;52.210;21.174;2022-07-21T00:08:49;17.40;99.90
18408;DHT22;9330;52.210;21.174;2022-07-21T00:11:16;17.40;99.90
18408;DHT22;9330;52.210;21.174;2022-07-21T00:13:43;17.40;99.90
18408;DHT22;9330;52.210;21.174;2022-07-21T00:16:11;17.30;99.90
18408;DHT22;9330;52.210;21.174;2022-07-21T00:18:38;17.30;99.90
18408;DHT22;9330;52.210;21.174;2022-07-21T00:21:05;17.20;99.90
18408;DHT22;9330;52.210;21.174;2022-07-21T00:23:32;17.20;99.90
18408;DHT22;9330;52.210;21.174;2022-07-21T00:25:59;17.10;99.90
18408;DHT22;9330;52.210;21.174;2022-07-21T00:28:26;17.00;99.90
18408;DHT22;9330;52.210;21.174;2022-07-21T00:30:53;17.00;99.90
18408;DHT22;9330;52.210;21.174;2022-07-21T00:33:21;17.00;99.90
18408;DHT22;9330;52.210;21.174;2022-07-21T00:35:48;16.90;99.90
18408;DHT22;9330;52.210;21.174;2022-07-21T00:38:16;16.90;99.90
18408;DHT22;9330;52.210;21.174;2022-07-21T00:40:43;16.80;99.90
18408;DHT22;9330;52.210;21.174;2022-07-21T00:43:10;16.80;99.90
18408;DHT22;9330;52.210;21.174;2022-07-21T00:45:37;16.80;99.90
18408;DHT22;9330;52.210;21.174;2022-07-21T00:48:04;16.70;99.90
18408;DHT22;9330;52.210;21.174;2022-07-21T00:50:33;16.70;99.90
18408;DHT22;9330;52.210;21.174;2022-07-21T00:53:00;16.60;99.90
18408;DHT22;9330;52.210;21.174;2022-07-21T00:55:27;16.60;99.90
18408;DHT22;9330;52.210;21.174;2022-07-21T00:57:55;16.60;99.90
18408;DHT22;9330;52.210;21.174;2022-07-21T01:00:24;16.50;99.90
18408;DHT22;9330;52.210;21.174;2022-07-21T01:02:52;16.50;99.90
18408;DHT22;9330;52.210;21.174;2022-07-21T01:05:19;16.40;99.90
18408;DHT22;9330;52.210;21.174;2022-07-21T01:07:50;16.40;99.90
18408;DHT22;9330;52.210;21.174;2022-07-21T01:10:18;16.40;99.90
18408;DHT22;9330;52.210;21.174;2022-07-21T01:12:46;16.40;99.90
18408;DHT22;9330;52.210;21.174;2022-07-21T01:15:15;16.30;99.90
18408;DHT22;9330;52.210;21.174;2022-07-21T01:17:43;16.30;99.90
18408;DHT22;9330;52.210;21.174;2022-07-21T01:20:12;16.20;99.90
18408;DHT22;9330;52.210;21.174;2022-07-21T01:22:44;16.20;99.90
18408;DHT22;9330;52.210;21.174;2022-07-21T01:25:12;16.20;99.90
18408;DHT22;9330;52.210;21.174;2022-07-21T01:27:40;16.10;99.90
18408;DHT22;9330;52.210;21.174;2022-07-21T01:30:08;16.20;99.90
18408;DHT22;9330;52.210;21.174;2022-07-21T01:32:37;16.10;99.90
18408;DHT22;9330;52.210;21.174;2022-07-21T01:35:07;16.10;99.90
18408;DHT22;9330;52.210;21.174;2022-07-21T01:37:37;16.10;99.90
18408;DHT22;9330;52.210;21.174;2022-07-21T01:40:07;16.10;99.90
18408;DHT22;9330;52.210;21.174;2022-07-21T01:42:51;16.10;99.90
18408;DHT22;9330;52.210;21.174;2022-07-21T01:45:20;16.00;99.90
18408;DHT22;9330;52.210;21.174;2022-07-21T01:47:47;16.00;99.90
18408;DHT22;9330;52.210;21.174;2022-07-21T01:50:14;15.90;99.90
18408;DHT22;9330;52.210;21.174;2022-07-21T01:52:41;16.00;99.90
18408;DHT22;9330;52.210;21.174;2022-07-21T01:55:10;15.90;99.90
18408;DHT22;9330;52.210;21.174;2022-07-21T01:57:37;15.90;99.90
18408;DHT22;9330;52.210;21.174;2022-07-21T02:00:05;15.90;99.90
18408;DHT22;9330;52.210;21.174;2022-07-21T02:02:33;15.80;99.90
18408;DHT22;9330;52.210;21.174;2022-07-21T02:05:00;15.80;99.90
18408;DHT22;9330;52.210;21.174;2022-07-21T02:07:27;15.80;99.90
18408;DHT22;9330;52.210;21.174;2022-07-21T02:09:54;15.80;99.90
18408;DHT22;9330;52.210;21.174;2022-07-21T02:12:22;15.70;99.90
18408;DHT22;9330;52.210;21.174;2022-07-21T02:14:49;15.70;99.90
18408;DHT22;9330;52.210;21.174;2022-07-21T02:17:17;15.70;99.90
18408;DHT22;9330;52.210;21.174;2022-07-21T02:19:44;15.70;99.90
18408;DHT22;9330;52.210;21.174;2022-07-21T02:22:10;15.70;99.90
18408;DHT22;9330;52.210;21.174;2022-07-21T02:24:37;15.60;99.90
18408;DHT22;9330;52.210;21.174;2022-07-21T02:27:05;15.60;99.90
18408;DHT22;9330;52.210;21.174;2022-07-21T02:29:34;15.60;99.90
18408;DHT22;9330;52.210;21.174;2022-07-21T02:32:01;15.60;99.90
18408;DHT22;9330;52.210;21.174;2022-07-21T02:34:28;15.50;99.90
18408;DHT22;9330;52.210;21.174;2022-07-21T02:36:55;15.50;99.90
18408;DHT22;9330;52.210;21.174;2022-07-21T02:39:22;15.50;99.90
18408;DHT22;9330;52.210;21.174;2022-07-21T02:41:49;15.50;99.90
18408;DHT22;9330;52.210;21.174;2022-07-21T02:44:16;15.40;99.90
18408;DHT22;9330;52.210;21.174;2022-07-21T02:46:44;15.50;99.90
18408;DHT22;9330;52.210;21.174;2022-07-21T02:49:11;15.40;99.90
18408;DHT22;9330;52.210;21.174;2022-07-21T02:51:38;15.40;99.90
18408;DHT22;9330;52.210;21.174;2022-07-21T02:54:05;15.40;99.90
18408;DHT22;9330;52.210;21.174;2022-07-21T02:56:32;15.40;99.90
18408;DHT22;9330;52.210;21.174;2022-07-21T02:58:59;15.40;99.90
18408;DHT22;9330;52.210;21.174;2022-07-21T03:01:26;15.40;99.90
18408;DHT22;9330;52.210;21.174;2022-07-21T03:03:54;15.30;99.90
18408;DHT22;9330;52.210;21.174;2022-07-21T03:06:21;15.30;99.90
18408;DHT22;9330;52.210;21.174;2022-07-21T03:08:48;15.30;99.90
18408;DHT22;9330;52.210;21.174;2022-07-21T03:11:15;15.30;99.90
18408;DHT22;9330;52.210;21.174;2022-07-21T03:13:42;15.30;99.90
18408;DHT22;9330;52.210;21.174;2022-07-21T03:16:09;15.30;99.90
18408;DHT22;9330;52.210;21.174;2022-07-21T03:18:36;15.30;99.90
18408;DHT22;9330;52.210;21.174;2022-07-21T03:21:05;15.30;99.90
18408;DHT22;9330;52.210;21.174;2022-07-21T03:23:31;15.30;99.90
18408;DHT22;9330;52.210;21.174;2022-07-21T03:25:59;15.30;99.90
18408;DHT22;9330;52.210;21.174;2022-07-21T03:28:26;15.30;99.90
18408;DHT22;9330;52.210;21.174;2022-07-21T03:30:53;15.40;99.90
18408;DHT22;9330;52.210;21.174;2022-07-21T03:33:20;15.30;99.90
18408;DHT22;9330;52.210;21.174;2022-07-21T03:35:47;15.40;99.90
18408;DHT22;9330;52.210;21.174;2022-07-21T03:38:15;15.40;99.90
18408;DHT22;9330;52.210;21.174;2022-07-21T03:40:42;15.40;99.90
18408;DHT22;9330;52.210;21.174;2022-07-21T03:43:09;15.40;99.90
18408;DHT22;9330;52.210;21.174;2022-07-21T03:45:36;15.50;99.90
18408;DHT22;9330;52.210;21.174;2022-07-21T03:48:05;15.50;99.90
18408;DHT22;9330;52.210;21.174;2022-07-21T03:50:33;15.50;99.90
18408;DHT22;9330;52.210;21.174;2022-07-21T03:53:00;15.60;99.90
18408;DHT22;9330;52.210;21.174;2022-07-21T03:55:29;15.60;99.90
18408;DHT22;9330;52.210;21.174;2022-07-21T03:57:58;15.60;99.90
18408;DHT22;9330;52.210;21.174;2022-07-21T04:00:27;15.70;99.90
18408;DHT22;9330;52.210;21.174;2022-07-21T04:02:55;15.80;99.90
18408;DHT22;9330;52.210;21.174;2022-07-21T04:05:23;15.90;99.90
18408;DHT22;9330;52.210;21.174;2022-07-21T04:07:52;15.90;99.90
18408;DHT22;9330;52.210;21.174;2022-07-21T04:10:20;16.00;99.90
18408;DHT22;9330;52.210;21.174;2022-07-21T04:12:49;16.10;99.90
18408;DHT22;9330;52.210;21.174;2022-07-21T04:15:16;16.20;99.90
18408;DHT22;9330;52.210;21.174;2022-07-21T04:17:43;16.30;99.90
18408;DHT22;9330;52.210;21.174;2022-07-21T04:20:12;16.40;99.90
18408;DHT22;9330;52.210;21.174;2022-07-21T04:22:40;16.50;99.90
18408;DHT22;9330;52.210;21.174;2022-07-21T04:25:07;16.60;99.90
18408;DHT22;9330;52.210;21.174;2022-07-21T04:27:35;16.80;99.90
18408;DHT22;9330;52.210;21.174;2022-07-21T04:30:06;16.90;99.90
18408;DHT22;9330;52.210;21.174;2022-07-21T04:32:33;17.10;99.90
18408;DHT22;9330;52.210;21.174;2022-07-21T04:35:00;17.20;99.90
18408;DHT22;9330;52.210;21.174;2022-07-21T04:37:27;17.40;99.90
18408;DHT22;9330;52.210;21.174;2022-07-21T04:39:54;17.50;99.90
18408;DHT22;9330;52.210;21.174;2022-07-21T04:42:21;17.60;99.90
18408;DHT22;9330;52.210;21.174;2022-07-21T04:44:48;17.70;99.90
18408;DHT22;9330;52.210;21.174;2022-07-21T04:47:17;17.90;99.90
18408;DHT22;9330;52.210;21.174;2022-07-21T04:49:44;18.00;99.90
18408;DHT22;9330;52.210;21.174;2022-07-21T04:52:11;18.20;99.90
18408;DHT22;9330;52.210;21.174;2022-07-21T04:54:38;18.30;99.90
18408;DHT22;9330;52.210;21.174;2022-07-21T04:57:05;18.50;99.90
18408;DHT22;9330;52.210;21.174;2022-07-21T04:59:32;18.60;99.90
18408;DHT22;9330;52.210;21.174;2022-07-21T05:02:00;18.70;99.90
18408;DHT22;9330;52.210;21.174;2022-07-21T05:04:28;18.90;99.90
18408;DHT22;9330;52.210;21.174;2022-07-21T05:06:56;19.10;99.90
18408;DHT22;9330;52.210;21.174;2022-07-21T05:09:23;19.30;99.90
18408;DHT22;9330;52.210;21.174;2022-07-21T05:11:50;19.50;99.90
18408;DHT22;9330;52.210;21.174;2022-07-21T05:14:17;19.60;99.90
18408;DHT22;9330;52.210;21.174;2022-07-21T05:16:44;19.70;99.90
18408;DHT22;9330;52.210;21.174;2022-07-21T05:19:11;19.80;99.90
18408;DHT22;9330;52.210;21.174;2022-07-21T05:21:40;20.00;99.90
18408;DHT22;9330;52.210;21.174;2022-07-21T05:24:07;20.10;99.90
18408;DHT22;9330;52.210;21.174;2022-07-21T05:26:34;20.30;99.90
18408;DHT22;9330;52.210;21.174;2022-07-21T05:29:02;20.40;99.90
18408;DHT22;9330;52.210;21.174;2022-07-21T05:31:29;20.50;99.90
18408;DHT22;9330;52.210;21.174;2022-07-21T05:33:56;20.80;99.90
18408;DHT22;9330;52.210;21.174;2022-07-21T05:36:23;20.90;99.90
18408;DHT22;9330;52.210;21.174;2022-07-21T05:38:51;21.10;99.90
18408;DHT22;9330;52.210;21.174;2022-07-21T05:41:18;21.20;99.90
18408;DHT22;9330;52.210;21.174;2022-07-21T05:43:46;21.40;99.90
18408;DHT22;9330;52.210;21.174;2022-07-21T05:46:14;21.50;99.90
18408;DHT22;9330;52.210;21.174;2022-07-21T05:48:41;21.60;99.90
18408;DHT22;9330;52.210;21.174;2022-07-21T05:51:08;21.80;99.90
18408;DHT22;9330;52.210;21.174;2022-07-21T05:53:35;22.00;99.90
18408;DHT22;9330;52.210;21.174;2022-07-21T05:56:04;22.20;99.90
18408;DHT22;9330;52.210;21.174;2022-07-21T05:58:33;22.30;99.90
18408;DHT22;9330;52.210;21.174;2022-07-21T06:01:00;22.40;99.90
18408;DHT22;9330;52.210;21.174;2022-07-21T06:03:41;22.50;99.90
18408;DHT22;9330;52.210;21.174;2022-07-21T06:06:08;22.70;99.90
18408;DHT22;9330;52.210;21.174;2022-07-21T06:08:38;22.80;99.90
18408;DHT22;9330;52.210;21.174;2022-07-21T06:11:07;23.00;99.90
18408;DHT22;9330;52.210;21.174;2022-07-21T06:13:34;23.10;99.90
18408;DHT22;9330;52.210;21.174;2022-07-21T06:16:02;23.20;99.90
18408;DHT22;9330;52.210;21.174;2022-07-21T06:18:29;23.40;99.90
18408;DHT22;9330;52.210;21.174;2022-07-21T06:20:56;23.50;99.90
18408;DHT22;9330;52.210;21.174;2022-07-21T06:23:23;23.70;99.90
18408;DHT22;9330;52.210;21.174;2022-07-21T06:25:50;23.80;99.90
18408;DHT22;9330;52.210;21.174;2022-07-21T06:28:19;23.90;99.90
18408;DHT22;9330;52.210;21.174;2022-07-21T06:30:46;24.00;99.90
18408;DHT22;9330;52.210;21.174;2022-07-21T06:33:13;24.20;99.90
18408;DHT22;9330;52.210;21.174;2022-07-21T06:35:41;24.30;99.90
18408;DHT22;9330;52.210;21.174;2022-07-21T06:38:09;24.40;99.90
18408;DHT22;9330;52.210;21.174;2022-07-21T06:40:36;24.50;99.90
18408;DHT22;9330;52.210;21.174;2022-07-21T06:43:03;24.70;99.90
18408;DHT22;9330;52.210;21.174;2022-07-21T06:45:31;24.70;99.90
18408;DHT22;9330;52.210;21.174;2022-07-21T06:48:02;25.00;99.10
18408;DHT22;9330;52.210;21.174;2022-07-21T06:50:29;25.00;97.80
18408;DHT22;9330;52.210;21.174;2022-07-21T06:52:57;25.10;99.10
18408;DHT22;9330;52.210;21.174;2022-07-21T06:55:24;25.20;97.20
18408;DHT22;9330;52.210;21.174;2022-07-21T06:57:51;25.30;99.90
18408;DHT22;9330;52.210;21.174;2022-07-21T07:00:18;25.20;95.50
18408;DHT22;9330;52.210;21.174;2022-07-21T07:02:47;25.40;98.90
18408;DHT22;9330;52.210;21.174;2022-07-21T07:05:14;25.40;98.00
18408;DHT22;9330;52.210;21.174;2022-07-21T07:07:41;25.50;99.10
18408;DHT22;9330;52.210;21.174;2022-07-21T07:10:09;25.60;95.90
18408;DHT22;9330;52.210;21.174;2022-07-21T07:12:36;25.60;97.80
18408;DHT22;9330;52.210;21.174;2022-07-21T07:15:04;25.70;97.70
18408;DHT22;9330;52.210;21.174;2022-07-21T07:17:31;25.90;99.70
18408;DHT22;9330;52.210;21.174;2022-07-21T07:19:59;25.90;96.50
18408;DHT22;9330;52.210;21.174;2022-07-21T07:22:26;26.10;92.70
18408;DHT22;9330;52.210;21.174;2022-07-21T07:24:53;26.10;91.50
18408;DHT22;9330;52.210;21.174;2022-07-21T07:27:20;26.10;93.50
18408;DHT22;9330;52.210;21.174;2022-07-21T07:29:47;26.20;96.40
18408;DHT22;9330;52.210;21.174;2022-07-21T07:32:14;26.20;94.10
18408;DHT22;9330;52.210;21.174;2022-07-21T07:34:41;26.10;94.60
18408;DHT22;9330;52.210;21.174;2022-07-21T07:37:09;26.10;92.00
18408;DHT22;9330;52.210;21.174;2022-07-21T07:39:36;26.30;95.30
18408;DHT22;9330;52.210;21.174;2022-07-21T07:42:04;26.40;93.80
18408;DHT22;9330;52.210;21.174;2022-07-21T07:44:32;26.40;90.40
18408;DHT22;9330;52.210;21.174;2022-07-21T07:46:59;26.40;91.70
18408;DHT22;9330;52.210;21.174;2022-07-21T07:49:27;26.40;91.60
18408;DHT22;9330;52.210;21.174;2022-07-21T07:51:54;26.40;92.20
18408;DHT22;9330;52.210;21.174;2022-07-21T07:54:23;26.50;95.30
18408;DHT22;9330;52.210;21.174;2022-07-21T07:56:50;26.60;90.40
18408;DHT22;9330;52.210;21.174;2022-07-21T07:59:17;26.50;94.50
18408;DHT22;9330;52.210;21.174;2022-07-21T08:01:44;26.70;96.00
18408;DHT22;9330;52.210;21.174;2022-07-21T08:04:11;26.80;90.50
18408;DHT22;9330;52.210;21.174;2022-07-21T08:06:39;26.70;86.80
18408;DHT22;9330;52.210;21.174;2022-07-21T08:09:07;26.70;94.20
18408;DHT22;9330;52.210;21.174;2022-07-21T08:11:36;26.80;94.30
18408;DHT22;9330;52.210;21.174;2022-07-21T08:14:03;26.90;88.50
18408;DHT22;9330;52.210;21.174;2022-07-21T08:16:30;26.90;91.10
18408;DHT22;9330;52.210;21.174;2022-07-21T08:18:57;27.00;93.50
18408;DHT22;9330;52.210;21.174;2022-07-21T08:21:24;27.10;91.20
18408;DHT22;9330;52.210;21.174;2022-07-21T08:23:56;27.00;91.10
18408;DHT22;9330;52.210;21.174;2022-07-21T08:26:23;27.10;93.20
18408;DHT22;9330;52.210;21.174;2022-07-21T08:28:51;27.10;87.60
18408;DHT22;9330;52.210;21.174;2022-07-21T08:31:18;27.10;84.60
18408;DHT22;9330;52.210;21.174;2022-07-21T08:33:45;27.10;87.30
18408;DHT22;9330;52.210;21.174;2022-07-21T08:36:12;27.10;84.40
18408;DHT22;9330;52.210;21.174;2022-07-21T08:38:39;27.10;86.40
18408;DHT22;9330;52.210;21.174;2022-07-21T08:41:06;27.20;92.60
18408;DHT22;9330;52.210;21.174;2022-07-21T08:43:34;27.30;84.00
18408;DHT22;9330;52.210;21.174;2022-07-21T08:46:03;27.40;91.50
18408;DHT22;9330;52.210;21.174;2022-07-21T08:48:30;27.20;81.90
18408;DHT22;9330;52.210;21.174;2022-07-21T08:50:57;27.30;88.80
18408;DHT22;9330;52.210;21.174;2022-07-21T08:53:25;27.30;91.30
18408;DHT22;9330;52.210;21.174;2022-07-21T08:55:54;27.40;85.20
18408;DHT22;9330;52.210;21.174;2022-07-21T08:58:21;27.30;81.00
18408;DHT22;9330;52.210;21.174;2022-07-21T09:00:49;27.30;79.70
18408;DHT22;9330;52.210;21.174;2022-07-21T09:03:20;27.30;92.30
18408;DHT22;9330;52.210;21.174;2022-07-21T09:06:05;27.40;85.60
18408;DHT22;9330;52.210;21.174;2022-07-21T09:08:35;27.40;81.80
18408;DHT22;9330;52.210;21.174;2022-07-21T09:11:10;27.40;79.10
18408;DHT22;9330;52.210;21.174;2022-07-21T09:13:38;27.50;83.20
18408;DHT22;9330;52.210;21.174;2022-07-21T09:16:05;27.50;85.30
18408;DHT22;9330;52.210;21.174;2022-07-21T09:18:34;27.50;80.20
18408;DHT22;9330;52.210;21.174;2022-07-21T09:21:00;27.50;80.70
18408;DHT22;9330;52.210;21.174;2022-07-21T09:23:28;27.60;78.70
18408;DHT22;9330;52.210;21.174;2022-07-21T09:25:56;27.60;77.70
18408;DHT22;9330;52.210;21.174;2022-07-21T09:28:26;27.70;90.10
18408;DHT22;9330;52.210;21.174;2022-07-21T09:30:56;27.80;77.10
18408;DHT22;9330;52.210;21.174;2022-07-21T09:33:29;28.00;80.50
18408;DHT22;9330;52.210;21.174;2022-07-21T09:36:02;28.00;79.00
18408;DHT22;9330;52.210;21.174;2022-07-21T09:38:32;28.00;78.80
18408;DHT22;9330;52.210;21.174;2022-07-21T09:41:11;28.10;74.50
18408;DHT22;9330;52.210;21.174;2022-07-21T09:43:40;28.10;72.60
18408;DHT22;9330;52.210;21.174;2022-07-21T09:46:15;28.10;80.20
18408;DHT22;9330;52.210;21.174;2022-07-21T09:48:44;28.10;72.60
18408;DHT22;9330;52.210;21.174;2022-07-21T09:51:27;28.20;73.60
18408;DHT22;9330;52.210;21.174;2022-07-21T09:53:57;28.40;72.40
18408;DHT22;9330;52.210;21.174;2022-07-21T09:56:26;28.50;75.50
18408;DHT22;9330;52.210;21.174;2022-07-21T09:58:55;28.60;72.40
18408;DHT22;9330;52.210;21.174;2022-07-21T10:01:22;28.60;70.90
18408;DHT22;9330;52.210;21.174;2022-07-21T10:03:50;28.80;65.90
18408;DHT22;9330;52.210;21.174;2022-07-21T10:06:24;28.90;65.30
18408;DHT22;9330;52.210;21.174;2022-07-21T10:08:53;28.90;68.30
18408;DHT22;9330;52.210;21.174;2022-07-21T10:11:20;28.90;65.40
18408;DHT22;9330;52.210;21.174;2022-07-21T10:13:48;28.90;62.90
18408;DHT22;9330;52.210;21.174;2022-07-21T10:16:15;28.90;61.40
18408;DHT22;9330;52.210;21.174;2022-07-21T10:18:54;29.00;63.60
18408;DHT22;9330;52.210;21.174;2022-07-21T10:21:42;29.10;63.40
18408;DHT22;9330;52.210;21.174;2022-07-21T10:24:12;29.20;60.60
18408;DHT22;9330;52.210;21.174;2022-07-21T10:26:59;29.20;61.00
18408;DHT22;9330;52.210;21.174;2022-07-21T10:29:53;29.30;59.70
18408;DHT22;9330;52.210;21.174;2022-07-21T10:32:21;29.30;59.50
18408;DHT22;9330;52.210;21.174;2022-07-21T10:34:49;29.30;60.90
18408;DHT22;9330;52.210;21.174;2022-07-21T10:37:47;29.40;58.90
18408;DHT22;9330;52.210;21.174;2022-07-21T10:40:35;29.50;59.20
18408;DHT22;9330;52.210;21.174;2022-07-21T10:46:34;29.40;57.40
18408;DHT22;9330;52.210;21.174;2022-07-21T10:49:03;29.40;57.40
18408;DHT22;9330;52.210;21.174;2022-07-21T10:51:32;29.30;56.00
18408;DHT22;9330;52.210;21.174;2022-07-21T10:54:19;29.30;58.10
18408;DHT22;9330;52.210;21.174;2022-07-21T10:56:47;29.40;59.00
18408;DHT22;9330;52.210;21.174;2022-07-21T10:59:14;29.50;58.60
18408;DHT22;9330;52.210;21.174;2022-07-21T11:01:41;29.60;58.30
18408;DHT22;9330;52.210;21.174;2022-07-21T11:04:10;29.60;57.60
18408;DHT22;9330;52.210;21.174;2022-07-21T11:06:38;29.70;56.10
18408;DHT22;9330;52.210;21.174;2022-07-21T11:09:08;29.80;55.70
18408;DHT22;9330;52.210;21.174;2022-07-21T11:11:37;29.90;56.30
18408;DHT22;9330;52.210;21.174;2022-07-21T11:14:08;29.90;55.20
18408;DHT22;9330;52.210;21.174;2022-07-21T11:17:05;29.90;54.90
18408;DHT22;9330;52.210;21.174;2022-07-21T11:19:38;29.90;58.20
18408;DHT22;9330;52.210;21.174;2022-07-21T11:22:09;29.90;56.00
18408;DHT22;9330;52.210;21.174;2022-07-21T11:24:36;30.00;56.20
18408;DHT22;9330;52.210;21.174;2022-07-21T11:27:05;30.20;56.70
18408;DHT22;9330;52.210;21.174;2022-07-21T11:29:35;30.40;53.50
18408;DHT22;9330;52.210;21.174;2022-07-21T11:32:03;30.70;53.00
18408;DHT22;9330;52.210;21.174;2022-07-21T11:34:44;30.80;53.10
18408;DHT22;9330;52.210;21.174;2022-07-21T11:37:14;31.10;52.70
18408;DHT22;9330;52.210;21.174;2022-07-21T11:39:41;31.30;52.10
18408;DHT22;9330;52.210;21.174;2022-07-21T11:42:10;31.50;54.70
18408;DHT22;9330;52.210;21.174;2022-07-21T11:44:40;31.70;53.40
18408;DHT22;9330;52.210;21.174;2022-07-21T11:47:10;31.90;54.20
18408;DHT22;9330;52.210;21.174;2022-07-21T11:49:38;32.10;50.60
18408;DHT22;9330;52.210;21.174;2022-07-21T11:52:07;32.30;49.70
18408;DHT22;9330;52.210;21.174;2022-07-21T11:54:36;32.40;54.40
18408;DHT22;9330;52.210;21.174;2022-07-21T11:57:06;32.60;50.00
18408;DHT22;9330;52.210;21.174;2022-07-21T11:59:35;32.90;48.80
18408;DHT22;9330;52.210;21.174;2022-07-21T12:02:07;33.00;52.80
18408;DHT22;9330;52.210;21.174;2022-07-21T12:04:38;33.10;47.80
18408;DHT22;9330;52.210;21.174;2022-07-21T12:07:09;33.10;49.00
18408;DHT22;9330;52.210;21.174;2022-07-21T12:09:37;33.00;47.80
18408;DHT22;9330;52.210;21.174;2022-07-21T12:12:04;33.10;48.30
18408;DHT22;9330;52.210;21.174;2022-07-21T12:14:46;33.10;46.60
18408;DHT22;9330;52.210;21.174;2022-07-21T12:17:17;33.00;45.90
18408;DHT22;9330;52.210;21.174;2022-07-21T12:19:44;33.10;46.60
18408;DHT22;9330;52.210;21.174;2022-07-21T12:22:11;33.20;49.10
18408;DHT22;9330;52.210;21.174;2022-07-21T12:24:56;33.40;47.50
18408;DHT22;9330;52.210;21.174;2022-07-21T12:27:24;33.40;48.60
18408;DHT22;9330;52.210;21.174;2022-07-21T12:29:51;33.50;44.80
18408;DHT22;9330;52.210;21.174;2022-07-21T12:32:39;33.40;49.40
18408;DHT22;9330;52.210;21.174;2022-07-21T12:35:17;33.60;47.40
18408;DHT22;9330;52.210;21.174;2022-07-21T12:37:55;33.70;45.40
18408;DHT22;9330;52.210;21.174;2022-07-21T12:40:22;33.80;44.90
18408;DHT22;9330;52.210;21.174;2022-07-21T12:42:51;33.80;45.60
18408;DHT22;9330;52.210;21.174;2022-07-21T12:45:20;33.90;44.30
18408;DHT22;9330;52.210;21.174;2022-07-21T12:48:08;34.00;45.10
18408;DHT22;9330;52.210;21.174;2022-07-21T12:50:35;34.10;47.00
18408;DHT22;9330;52.210;21.174;2022-07-21T12:53:04;34.20;44.10
18408;DHT22;9330;52.210;21.174;2022-07-21T12:55:31;34.30;46.30
18408;DHT22;9330;52.210;21.174;2022-07-21T12:57:58;34.40;44.60
18408;DHT22;9330;52.210;21.174;2022-07-21T13:00:25;34.30;43.20
18408;DHT22;9330;52.210;21.174;2022-07-21T13:02:54;34.30;44.80
18408;DHT22;9330;52.210;21.174;2022-07-21T13:05:24;34.30;43.40
18408;DHT22;9330;52.210;21.174;2022-07-21T13:07:51;34.30;42.60
18408;DHT22;9330;52.210;21.174;2022-07-21T13:10:19;34.30;42.10
18408;DHT22;9330;52.210;21.174;2022-07-21T13:12:46;34.10;41.80
18408;DHT22;9330;52.210;21.174;2022-07-21T13:15:14;34.00;44.10
18408;DHT22;9330;52.210;21.174;2022-07-21T13:17:41;33.60;44.80
18408;DHT22;9330;52.210;21.174;2022-07-21T13:20:08;33.30;47.40
18408;DHT22;9330;52.210;21.174;2022-07-21T13:22:37;33.00;44.20
18408;DHT22;9330;52.210;21.174;2022-07-21T13:25:05;32.80;44.40
18408;DHT22;9330;52.210;21.174;2022-07-21T13:27:32;32.60;43.80
18408;DHT22;9330;52.210;21.174;2022-07-21T13:30:00;32.40;44.30
18408;DHT22;9330;52.210;21.174;2022-07-21T13:32:26;32.30;47.00
18408;DHT22;9330;52.210;21.174;2022-07-21T13:34:54;32.10;47.80
18408;DHT22;9330;52.210;21.174;2022-07-21T13:37:21;32.00;45.60
18408;DHT22;9330;52.210;21.174;2022-07-21T13:39:49;31.90;44.50
18408;DHT22;9330;52.210;21.174;2022-07-21T13:42:16;31.80;45.30
18408;DHT22;9330;52.210;21.174;2022-07-21T13:44:43;31.70;46.30
18408;DHT22;9330;52.210;21.174;2022-07-21T13:47:10;31.60;45.30
18408;DHT22;9330;52.210;21.174;2022-07-21T13:49:37;31.50;44.60
18408;DHT22;9330;52.210;21.174;2022-07-21T13:52:04;31.40;45.80
18408;DHT22;9330;52.210;21.174;2022-07-21T13:54:31;31.40;44.60
18408;DHT22;9330;52.210;21.174;2022-07-21T13:56:59;31.30;44.00
18408;DHT22;9330;52.210;21.174;2022-07-21T13:59:26;31.10;45.60
18408;DHT22;9330;52.210;21.174;2022-07-21T14:01:54;31.00;45.90
18408;DHT22;9330;52.210;21.174;2022-07-21T14:04:21;31.00;44.90
18408;DHT22;9330;52.210;21.174;2022-07-21T14:06:48;31.00;45.30
18408;DHT22;9330;52.210;21.174;2022-07-21T14:09:16;30.90;47.10
18408;DHT22;9330;52.210;21.174;2022-07-21T14:11:43;30.90;44.70
18408;DHT22;9330;52.210;21.174;2022-07-21T14:14:11;30.90;45.50
18408;DHT22;9330;52.210;21.174;2022-07-21T14:16:43;31.00;47.70
18408;DHT22;9330;52.210;21.174;2022-07-21T14:19:10;31.00;45.70
18408;DHT22;9330;52.210;21.174;2022-07-21T14:21:37;31.20;45.20
18408;DHT22;9330;52.210;21.174;2022-07-21T14:24:04;31.40;44.20
18408;DHT22;9330;52.210;21.174;2022-07-21T14:26:49;31.40;44.00
18408;DHT22;9330;52.210;21.174;2022-07-21T14:29:17;31.50;44.00
18408;DHT22;9330;52.210;21.174;2022-07-21T14:31:44;31.40;46.50
18408;DHT22;9330;52.210;21.174;2022-07-21T14:34:10;31.30;45.30
18408;DHT22;9330;52.210;21.174;2022-07-21T14:36:37;31.30;44.70
18408;DHT22;9330;52.210;21.174;2022-07-21T14:39:04;31.30;44.80
18408;DHT22;9330;52.210;21.174;2022-07-21T14:41:31;31.20;44.00
18408;DHT22;9330;52.210;21.174;2022-07-21T14:43:58;31.20;44.30
18408;DHT22;9330;52.210;21.174;2022-07-21T14:46:26;31.00;45.30
18408;DHT22;9330;52.210;21.174;2022-07-21T14:48:53;30.90;45.70
18408;DHT22;9330;52.210;21.174;2022-07-21T14:51:20;31.00;44.80
18408;DHT22;9330;52.210;21.174;2022-07-21T14:53:47;30.90;45.70
18408;DHT22;9330;52.210;21.174;2022-07-21T14:56:16;30.90;45.10
18408;DHT22;9330;52.210;21.174;2022-07-21T14:58:43;30.80;45.90
18408;DHT22;9330;52.210;21.174;2022-07-21T15:01:10;30.80;47.30
18408;DHT22;9330;52.210;21.174;2022-07-21T15:03:38;30.80;46.90
18408;DHT22;9330;52.210;21.174;2022-07-21T15:06:06;30.70;48.40
18408;DHT22;9330;52.210;21.174;2022-07-21T15:08:32;30.60;46.40
18408;DHT22;9330;52.210;21.174;2022-07-21T15:10:59;30.60;46.80
18408;DHT22;9330;52.210;21.174;2022-07-21T15:13:26;30.60;47.50
18408;DHT22;9330;52.210;21.174;2022-07-21T15:15:54;30.60;46.80
18408;DHT22;9330;52.210;21.174;2022-07-21T15:18:21;30.70;45.90
18408;DHT22;9330;52.210;21.174;2022-07-21T15:20:50;30.70;46.20
18408;DHT22;9330;52.210;21.174;2022-07-21T15:23:17;30.80;46.20
18408;DHT22;9330;52.210;21.174;2022-07-21T15:25:43;30.90;46.30
18408;DHT22;9330;52.210;21.174;2022-07-21T15:28:10;31.10;46.20
18408;DHT22;9330;52.210;21.174;2022-07-21T15:30:37;31.30;46.80
18408;DHT22;9330;52.210;21.174;2022-07-21T15:33:04;31.70;45.40
18408;DHT22;9330;52.210;21.174;2022-07-21T15:35:31;31.90;47.30
18408;DHT22;9330;52.210;21.174;2022-07-21T15:37:59;32.20;45.00
18408;DHT22;9330;52.210;21.174;2022-07-21T15:40:26;32.40;45.30
18408;DHT22;9330;52.210;21.174;2022-07-21T15:42:53;32.40;44.50